Time;durP1;ratioP1;P1;durP2;ratioP2;P2;SDS_P1;SDS_P2;PMS_P1;PMS_P2;Temp;Humidity;BMP_temperature;BMP_pressure;BME280_temperature;BME280_humidity;BME280_pressure;Samples;Min_cycle;Max_cycle;Signal;HPM_P1;HPM_P2
2024/04/06 00:02:16;;;;;;;9.48;2.38;;;12.80;99.90;;;;;;5096478;27;20534;-89
2024/04/06 00:04:42;;;;;;;12.32;3.92;;;12.80;99.90;;;;;;5130355;27;20098;-89
2024/04/06 00:07:08;;;;;;;9.00;2.65;;;12.90;99.90;;;;;;5093078;27;20091;-89
2024/04/06 00:09:34;;;;;;;16.42;2.45;;;12.80;99.90;;;;;;5109688;27;20402;-89
2024/04/06 00:12:00;;;;;;;13.32;4.28;;;12.80;99.90;;;;;;5112649;27;20046;-89
2024/04/06 00:14:26;;;;;;;8.48;2.35;;;12.90;99.90;;;;;;5111772;27;20039;-89
2024/04/06 00:16:51;;;;;;;8.02;2.42;;;12.90;99.90;;;;;;5112899;27;20043;-89
2024/04/06 00:19:17;;;;;;;7.38;1.73;;;12.80;99.90;;;;;;5111250;27;20028;-89
2024/04/06 00:21:43;;;;;;;13.90;4.25;;;12.80;99.90;;;;;;5095684;27;20027;-89
2024/04/06 00:24:08;;;;;;;7.32;2.05;;;12.90;99.90;;;;;;5117577;27;20125;-89
2024/04/06 00:26:34;;;;;;;8.63;2.17;;;12.90;99.90;;;;;;5132766;27;20031;-89
2024/04/06 00:29:00;;;;;;;13.20;5.05;;;12.90;99.90;;;;;;5096336;27;20073;-89
2024/04/06 00:31:25;;;;;;;11.60;2.67;;;13.00;99.90;;;;;;5131797;27;20038;-90
2024/04/06 00:33:51;;;;;;;9.00;2.33;;;12.90;99.90;;;;;;5112876;27;20031;-89
2024/04/06 00:36:16;;;;;;;14.18;4.97;;;12.90;99.90;;;;;;5092808;27;20047;-90
2024/04/06 00:38:42;;;;;;;16.45;4.68;;;13.00;99.90;;;;;;5108801;27;20035;-89
2024/04/06 00:41:08;;;;;;;9.75;2.88;;;13.10;99.90;;;;;;5112151;27;20067;-89
2024/04/06 00:43:34;;;;;;;8.98;2.20;;;13.10;99.90;;;;;;5110918;27;20043;-89
2024/04/06 00:46:00;;;;;;;15.40;4.78;;;13.00;99.90;;;;;;5094642;27;20080;-89
2024/04/06 00:48:26;;;;;;;9.88;3.05;;;13.00;99.90;;;;;;5110918;27;20035;-89
2024/04/06 00:51:04;;;;;;;10.48;2.30;;;13.00;99.90;;;;;;5092668;27;20565;-90
2024/04/06 00:53:30;;;;;;;6.05;2.35;;;13.00;99.90;;;;;;5110625;27;20055;-89
2024/04/06 00:55:56;;;;;;;13.65;4.60;;;13.00;99.90;;;;;;5128922;27;20043;-89
2024/04/06 00:58:21;;;;;;;8.43;2.45;;;13.00;99.90;;;;;;5111735;27;20115;-89
2024/04/06 01:00:47;;;;;;;11.00;2.70;;;13.00;99.90;;;;;;5112040;27;20058;-89
2024/04/06 01:03:13;;;;;;;11.27;3.22;;;13.00;99.90;;;;;;5110854;27;20049;-89
2024/04/06 01:05:40;;;;;;;12.00;4.18;;;13.00;99.90;;;;;;5108068;27;20487;-88
2024/04/06 01:08:06;;;;;;;10.05;2.65;;;13.00;99.90;;;;;;5092671;27;20134;-89
2024/04/06 01:10:32;;;;;;;9.27;2.65;;;13.00;99.90;;;;;;5109897;27;20138;-88
2024/04/06 01:12:59;;;;;;;9.77;2.75;;;13.00;99.90;;;;;;5112017;27;20023;-89
2024/04/06 01:15:24;;;;;;;12.60;5.00;;;12.90;99.90;;;;;;5111217;27;20035;-90
2024/04/06 01:17:56;;;;;;;13.18;4.60;;;13.00;99.90;;;;;;5110252;27;20039;-90
2024/04/06 01:20:22;;;;;;;9.98;2.25;;;13.00;99.90;;;;;;5092062;27;20583;-90
2024/04/06 01:22:47;;;;;;;9.13;3.22;;;13.00;99.90;;;;;;5093648;27;20031;-89
2024/04/06 01:25:13;;;;;;;12.23;2.78;;;12.90;99.90;;;;;;5096472;27;20067;-89
2024/04/06 01:27:39;;;;;;;9.60;2.65;;;12.90;99.90;;;;;;5130849;27;20041;-90
2024/04/06 01:30:06;;;;;;;11.20;4.55;;;12.80;99.90;;;;;;5112080;27;20027;-89
2024/04/06 01:32:32;;;;;;;11.25;3.13;;;12.90;99.90;;;;;;5092862;27;20424;-89
2024/04/06 01:34:59;;;;;;;10.68;2.45;;;12.90;99.90;;;;;;5127262;27;20102;-89
2024/04/06 01:37:25;;;;;;;11.90;4.70;;;12.80;99.90;;;;;;5108234;27;20077;-89
2024/04/06 01:39:50;;;;;;;13.40;3.30;;;12.90;99.90;;;;;;5092516;27;20035;-89
2024/04/06 01:42:16;;;;;;;7.45;2.40;;;12.90;99.90;;;;;;5111730;27;20027;-89
2024/04/06 01:44:41;;;;;;;6.60;2.88;;;12.80;99.90;;;;;;5094385;27;20045;-90
2024/04/06 01:47:07;;;;;;;10.02;2.60;;;12.80;99.90;;;;;;5127405;27;20756;-89
2024/04/06 01:49:34;;;;;;;12.10;4.60;;;12.80;99.90;;;;;;5106061;27;20039;-89
2024/04/06 01:51:59;;;;;;;8.98;2.92;;;12.80;99.90;;;;;;5111575;27;20075;-89
2024/04/06 01:54:25;;;;;;;5.53;2.35;;;12.80;99.90;;;;;;5092522;27;20070;-89
2024/04/06 01:56:50;;;;;;;9.80;2.63;;;12.80;99.90;;;;;;5110369;27;20043;-89
2024/04/06 01:59:16;;;;;;;8.50;3.15;;;12.80;99.90;;;;;;5128434;27;20039;-88
2024/04/06 02:01:43;;;;;;;9.15;3.65;;;12.70;99.90;;;;;;5091473;27;20111;-89
2024/04/06 02:04:09;;;;;;;6.63;3.05;;;12.80;99.90;;;;;;5107950;27;20118;-89
2024/04/06 02:06:35;;;;;;;8.60;3.28;;;12.80;99.90;;;;;;5108630;27;20180;-89
2024/04/06 02:09:01;;;;;;;12.85;4.68;;;12.70;99.90;;;;;;5109086;27;20569;-88
2024/04/06 02:11:26;;;;;;;12.02;5.43;;;12.80;99.90;;;;;;5111420;27;20046;-89
2024/04/06 02:13:52;;;;;;;9.00;3.05;;;12.90;99.90;;;;;;5093889;27;20663;-89
2024/04/06 02:16:17;;;;;;;10.77;3.15;;;12.80;99.90;;;;;;5091219;27;20035;-89
2024/04/06 02:18:43;;;;;;;11.02;5.05;;;12.80;99.90;;;;;;5106068;27;20078;-89
2024/04/06 02:21:10;;;;;;;8.32;3.25;;;12.80;99.90;;;;;;5093121;27;20498;-88
2024/04/06 02:23:36;;;;;;;8.85;3.17;;;12.80;99.90;;;;;;5109280;27;20050;-89
2024/04/06 02:26:01;;;;;;;11.20;5.97;;;12.80;99.90;;;;;;5110086;27;20023;-89
2024/04/06 02:28:27;;;;;;;12.40;6.22;;;12.80;99.90;;;;;;5109923;27;20034;-88
2024/04/06 02:30:53;;;;;;;10.43;4.10;;;12.90;99.90;;;;;;5108788;27;20035;-89
2024/04/06 02:33:18;;;;;;;9.32;3.58;;;12.90;99.90;;;;;;5089992;27;20063;-89
2024/04/06 02:35:44;;;;;;;12.98;6.35;;;12.90;99.90;;;;;;5108128;27;20035;-89
2024/04/06 02:38:10;;;;;;;10.65;6.40;;;12.90;99.90;;;;;;5108572;27;20041;-88
2024/04/06 02:40:35;;;;;;;9.05;3.45;;;13.00;99.90;;;;;;5092596;27;20647;-89
2024/04/06 02:43:01;;;;;;;13.55;4.13;;;13.00;99.90;;;;;;5128397;27;20055;-89
2024/04/06 02:45:26;;;;;;;10.65;3.97;;;12.90;99.90;;;;;;5090058;27;20080;-89
2024/04/06 02:47:52;;;;;;;9.75;4.43;;;12.90;99.90;;;;;;5089422;27;20033;-89
2024/04/06 02:50:18;;;;;;;10.02;4.32;;;12.90;99.90;;;;;;5109422;27;20047;-89
2024/04/06 02:52:44;;;;;;;9.27;4.75;;;12.90;99.90;;;;;;5109516;27;20113;-89
2024/04/06 02:55:09;;;;;;;11.73;7.53;;;13.00;99.90;;;;;;5092797;27;20088;-89
2024/04/06 02:57:35;;;;;;;12.48;6.72;;;13.00;99.90;;;;;;5108317;27;20047;-89
2024/04/06 03:00:03;;;;;;;8.65;3.85;;;13.10;99.90;;;;;;5090526;27;20509;-89
2024/04/06 03:02:29;;;;;;;10.57;4.38;;;13.10;99.90;;;;;;5122776;27;20039;-89
2024/04/06 03:04:55;;;;;;;10.52;4.60;;;13.00;99.90;;;;;;5109041;27;20035;-89
2024/04/06 03:07:20;;;;;;;12.18;7.30;;;13.00;99.90;;;;;;5108349;28;20039;-89
2024/04/06 03:09:46;;;;;;;11.70;6.57;;;13.10;99.90;;;;;;5093404;27;20031;-90
2024/04/06 03:12:12;;;;;;;10.40;3.67;;;13.10;99.90;;;;;;5110861;27;20118;-90
2024/04/06 03:14:38;;;;;;;8.18;3.63;;;13.10;99.90;;;;;;5092011;28;20543;-89
2024/04/06 03:17:03;;;;;;;9.77;4.05;;;13.00;99.90;;;;;;5089058;28;20027;-89
2024/04/06 03:19:29;;;;;;;9.90;4.40;;;13.00;99.90;;;;;;5126173;28;20034;-89
2024/04/06 03:21:55;;;;;;;12.02;3.72;;;13.00;99.90;;;;;;5108863;28;20031;-89
2024/04/06 03:24:20;;;;;;;9.25;3.80;;;13.00;99.90;;;;;;5092020;28;20080;-88
2024/04/06 03:26:46;;;;;;;12.98;4.15;;;12.90;99.90;;;;;;5108127;28;20045;-89
2024/04/06 03:29:11;;;;;;;11.75;4.65;;;13.00;99.90;;;;;;5125258;28;20092;-89
2024/04/06 03:31:37;;;;;;;11.52;4.63;;;13.00;99.90;;;;;;5104172;28;20525;-89
2024/04/06 03:34:03;;;;;;;12.27;7.57;;;13.00;99.90;;;;;;5109365;28;20039;-89
2024/04/06 03:36:28;;;;;;;8.85;4.75;;;13.10;99.90;;;;;;5091069;28;20023;-88
2024/04/06 03:38:54;;;;;;;10.00;4.57;;;13.10;99.90;;;;;;5109653;28;20501;-89
2024/04/06 03:41:20;;;;;;;10.23;4.82;;;13.10;99.90;;;;;;5091332;28;20494;-89
2024/04/06 03:43:45;;;;;;;12.07;7.18;;;13.10;99.90;;;;;;5106896;28;20065;-89
2024/04/06 03:46:11;;;;;;;10.57;4.90;;;13.20;99.90;;;;;;5105666;28;20031;-90
2024/04/06 03:48:36;;;;;;;10.10;4.68;;;13.20;99.90;;;;;;5108020;28;20486;-89
2024/04/06 03:51:02;;;;;;;11.23;7.65;;;13.20;99.90;;;;;;5091685;28;20046;-90
2024/04/06 03:53:37;;;;;;;8.40;3.78;;;13.20;99.90;;;;;;5109310;28;20043;-90
2024/04/06 03:56:03;;;;;;;14.48;7.93;;;13.20;99.90;;;;;;5090781;28;20054;-90
2024/04/06 03:58:29;;;;;;;8.13;4.07;;;13.20;99.90;;;;;;5123951;28;20054;-89
2024/04/06 04:00:55;;;;;;;11.68;7.32;;;13.20;99.90;;;;;;5105189;28;20489;-89
2024/04/06 04:03:21;;;;;;;11.82;7.55;;;13.20;99.90;;;;;;5126204;28;20084;-88
2024/04/06 04:05:48;;;;;;;8.52;3.88;;;13.30;99.90;;;;;;5108788;28;20035;-89
2024/04/06 04:08:13;;;;;;;10.77;4.53;;;13.20;99.90;;;;;;5091747;28;20039;-88
2024/04/06 04:10:39;;;;;;;11.05;7.60;;;13.20;99.90;;;;;;5090770;28;20045;-89
2024/04/06 04:13:09;;;;;;;10.38;4.32;;;13.20;99.90;;;;;;5127703;27;20490;-89
2024/04/06 04:15:36;;;;;;;8.20;3.95;;;13.20;99.90;;;;;;5109435;27;20042;-89
2024/04/06 04:18:02;;;;;;;8.20;4.22;;;13.20;99.90;;;;;;5130416;27;20038;-89
2024/04/06 04:20:27;;;;;;;8.50;4.43;;;13.10;99.90;;;;;;5110394;27;20031;-89
2024/04/06 04:22:53;;;;;;;10.95;4.85;;;13.10;99.90;;;;;;5131139;27;20031;-88
2024/04/06 04:25:18;;;;;;;12.90;6.63;;;13.10;99.90;;;;;;5111253;27;20129;-89
2024/04/06 04:27:44;;;;;;;10.27;6.38;;;13.20;99.90;;;;;;5108963;27;20148;-88
2024/04/06 04:30:11;;;;;;;11.32;6.57;;;13.30;99.90;;;;;;5108833;27;20716;-89
2024/04/06 04:32:37;;;;;;;7.70;3.50;;;13.30;99.90;;;;;;5129913;27;20036;-89
2024/04/06 04:35:03;;;;;;;9.60;3.70;;;13.20;99.90;;;;;;5096006;27;20047;-88
2024/04/06 04:37:28;;;;;;;10.23;5.97;;;13.20;99.90;;;;;;5094288;27;20039;-88
2024/04/06 04:39:54;;;;;;;8.95;5.65;;;13.30;99.90;;;;;;5094059;27;20027;-89
2024/04/06 04:42:19;;;;;;;8.60;3.55;;;13.30;99.90;;;;;;5109585;27;20035;-89
2024/04/06 04:44:45;;;;;;;7.68;3.28;;;13.30;99.90;;;;;;5127836;27;20048;-90
2024/04/06 04:47:11;;;;;;;9.20;5.70;;;13.30;99.90;;;;;;5110719;27;20070;-89
2024/04/06 04:49:36;;;;;;;12.48;3.45;;;13.40;99.90;;;;;;5129458;27;20091;-90
2024/04/06 04:52:02;;;;;;;7.93;3.13;;;13.40;99.90;;;;;;5095860;27;20063;-90
2024/04/06 04:54:28;;;;;;;10.68;5.20;;;13.30;99.90;;;;;;5110965;27;20043;-90
2024/04/06 04:56:54;;;;;;;9.13;5.68;;;13.40;99.90;;;;;;5093588;27;20031;-89
2024/04/06 04:59:19;;;;;;;7.65;2.95;;;13.50;99.90;;;;;;5109063;27;20464;-89
2024/04/06 05:01:45;;;;;;;8.90;3.78;;;13.40;99.90;;;;;;5130351;27;20058;-89
2024/04/06 05:04:10;;;;;;;7.47;2.83;;;13.40;99.90;;;;;;5111592;27;20031;-89
2024/04/06 05:06:36;;;;;;;11.02;5.95;;;13.40;99.90;;;;;;5111442;27;20035;-89
2024/04/06 05:09:02;;;;;;;11.05;5.40;;;13.40;99.90;;;;;;5110943;27;20039;-89
2024/04/06 05:11:27;;;;;;;8.48;3.67;;;13.50;99.90;;;;;;5092570;27;20058;-90
2024/04/06 05:13:53;;;;;;;8.88;5.35;;;13.50;99.90;;;;;;5112751;27;20046;-89
2024/04/06 05:16:19;;;;;;;11.38;5.40;;;13.50;99.90;;;;;;5093612;27;20039;-90
2024/04/06 05:18:44;;;;;;;11.00;5.32;;;13.60;99.90;;;;;;5093516;27;20039;-89
2024/04/06 05:21:10;;;;;;;7.90;3.00;;;13.60;99.90;;;;;;5111563;27;20035;-89
2024/04/06 05:23:36;;;;;;;9.77;5.22;;;13.50;99.90;;;;;;5096325;27;20045;-90
2024/04/06 05:26:01;;;;;;;7.93;2.60;;;13.50;99.90;;;;;;5131997;27;20246;-89
2024/04/06 05:28:27;;;;;;;10.02;4.88;;;13.50;99.90;;;;;;5133612;27;20501;-89
2024/04/06 05:30:53;;;;;;;8.15;2.47;;;13.50;99.90;;;;;;5111596;27;20035;-89
2024/04/06 05:33:21;;;;;;;5.93;2.28;;;13.50;99.90;;;;;;5094728;27;20548;-89
2024/04/06 05:35:48;;;;;;;8.07;4.30;;;13.50;99.90;;;;;;5112191;27;20027;-89
2024/04/06 05:38:15;;;;;;;9.48;3.13;;;13.50;99.90;;;;;;5109751;27;20555;-89
2024/04/06 05:40:42;;;;;;;7.75;2.35;;;13.50;99.90;;;;;;5106491;27;20028;-89
2024/04/06 05:43:08;;;;;;;8.75;4.00;;;13.50;99.90;;;;;;5092148;27;20038;-89
2024/04/06 05:45:36;;;;;;;8.02;3.67;;;13.60;99.90;;;;;;5092941;27;20034;-89
2024/04/06 05:48:04;;;;;;;5.72;2.20;;;13.70;99.90;;;;;;5093732;27;20031;-90
2024/04/06 05:50:31;;;;;;;6.72;2.03;;;13.60;99.90;;;;;;5094519;27;20031;-90
2024/04/06 05:52:57;;;;;;;8.82;3.83;;;13.60;99.90;;;;;;5095580;27;20043;-89
2024/04/06 05:55:23;;;;;;;7.65;2.22;;;13.60;99.90;;;;;;5111004;27;20051;-89
2024/04/06 05:57:49;;;;;;;6.07;2.10;;;13.60;99.90;;;;;;5092284;27;20065;-90
2024/04/06 06:00:15;;;;;;;6.70;2.53;;;13.60;99.90;;;;;;5109658;27;20031;-89
2024/04/06 06:02:41;;;;;;;7.53;2.92;;;13.60;99.90;;;;;;5093140;27;20099;-89
2024/04/06 06:05:07;;;;;;;7.65;2.60;;;13.60;99.90;;;;;;5093030;27;20049;-90
2024/04/06 06:07:33;;;;;;;9.45;3.65;;;13.70;99.90;;;;;;5089970;27;20031;-89
2024/04/06 06:09:59;;;;;;;8.07;3.72;;;13.80;99.90;;;;;;5107458;27;20118;-90
2024/04/06 06:12:25;;;;;;;9.25;3.83;;;13.90;99.90;;;;;;5108358;27;20493;-90
2024/04/06 06:14:51;;;;;;;6.03;2.30;;;14.00;99.90;;;;;;5109571;27;20080;-90
2024/04/06 06:17:19;;;;;;;5.10;2.30;;;13.90;99.90;;;;;;5109298;27;20043;-90
2024/04/06 06:19:44;;;;;;;8.05;3.70;;;14.00;99.90;;;;;;5092957;27;20035;-89
2024/04/06 06:22:10;;;;;;;5.43;2.10;;;14.00;99.90;;;;;;5111012;27;20050;-89
2024/04/06 06:24:36;;;;;;;8.63;3.63;;;14.00;99.90;;;;;;5116178;27;20581;-90
2024/04/06 06:27:02;;;;;;;6.25;2.30;;;14.10;99.90;;;;;;5093896;27;20039;-89
2024/04/06 06:29:28;;;;;;;9.27;2.40;;;14.10;99.90;;;;;;5093577;27;20046;-90
2024/04/06 06:31:53;;;;;;;6.70;1.90;;;14.10;99.90;;;;;;5110141;27;20043;-90
2024/04/06 06:34:20;;;;;;;9.02;3.72;;;14.10;99.90;;;;;;5109954;27;20035;-89
2024/04/06 06:36:49;;;;;;;5.97;2.05;;;14.20;99.90;;;;;;5106678;27;20047;-90
2024/04/06 06:39:15;;;;;;;7.80;3.90;;;14.20;99.90;;;;;;5105988;27;20139;-90
2024/04/06 06:41:42;;;;;;;7.43;2.92;;;14.30;99.90;;;;;;5107473;27;20026;-90
2024/04/06 06:44:08;;;;;;;10.18;4.20;;;14.30;99.90;;;;;;5093572;27;20073;-90
2024/04/06 06:46:33;;;;;;;10.13;4.25;;;14.40;99.90;;;;;;5109275;27;20506;-90
2024/04/06 06:48:59;;;;;;;7.05;2.65;;;14.50;99.90;;;;;;5127481;27;20031;-90
2024/04/06 06:51:25;;;;;;;8.32;4.10;;;14.50;99.90;;;;;;5091770;27;20035;-90
2024/04/06 06:53:51;;;;;;;8.70;3.80;;;14.60;99.90;;;;;;5107012;27;20521;-90
2024/04/06 06:56:17;;;;;;;9.20;4.00;;;14.70;99.90;;;;;;5108807;27;20043;-90
2024/04/06 06:58:43;;;;;;;9.25;4.15;;;14.70;99.90;;;;;;5108134;27;20039;-90
2024/04/06 07:01:08;;;;;;;6.45;2.05;;;14.70;99.90;;;;;;5092034;27;20498;-89
2024/04/06 07:03:34;;;;;;;7.22;2.33;;;14.70;99.90;;;;;;5091784;27;20031;-90
2024/04/06 07:05:59;;;;;;;8.50;3.88;;;14.70;99.90;;;;;;5124586;27;20031;-90
2024/04/06 07:08:25;;;;;;;9.85;4.10;;;14.70;99.90;;;;;;5105199;27;20482;-90
2024/04/06 07:10:50;;;;;;;6.45;2.67;;;14.80;99.90;;;;;;5106249;27;20056;-89
2024/04/06 07:13:16;;;;;;;7.68;3.67;;;14.80;99.90;;;;;;5091426;27;20035;-90
2024/04/06 07:15:41;;;;;;;10.35;4.35;;;14.90;99.90;;;;;;5109962;28;20517;-90
2024/04/06 07:18:07;;;;;;;5.63;2.20;;;15.00;99.90;;;;;;5092252;28;20104;-90
2024/04/06 07:20:33;;;;;;;11.52;4.50;;;15.00;99.90;;;;;;5106606;28;20103;-90
2024/04/06 07:22:59;;;;;;;10.02;4.57;;;15.00;99.90;;;;;;5131572;27;20028;-90
2024/04/06 07:25:25;;;;;;;9.50;4.15;;;15.10;99.90;;;;;;5108546;28;20035;-90
2024/04/06 07:27:50;;;;;;;7.50;2.55;;;15.20;99.90;;;;;;5108305;28;20040;-90
2024/04/06 07:30:16;;;;;;;9.88;4.28;;;15.20;99.90;;;;;;5109439;28;20031;-90
2024/04/06 07:32:41;;;;;;;8.35;4.10;;;15.30;99.90;;;;;;5092594;28;20043;-91
2024/04/06 07:35:09;;;;;;;10.23;4.00;;;15.30;99.90;;;;;;5108559;28;20059;-90
2024/04/06 07:37:34;;;;;;;6.68;2.63;;;15.40;99.90;;;;;;5087047;28;20162;-90
2024/04/06 07:40:00;;;;;;;7.13;2.58;;;15.40;99.90;;;;;;5109070;28;20548;-91
2024/04/06 07:42:26;;;;;;;10.65;4.20;;;15.40;99.90;;;;;;5091099;28;20024;-91
2024/04/06 07:44:51;;;;;;;8.80;3.75;;;15.50;99.90;;;;;;5110429;28;20043;-90
2024/04/06 07:47:17;;;;;;;7.72;3.88;;;15.60;99.90;;;;;;5109327;27;20039;-90
2024/04/06 07:49:43;;;;;;;9.88;4.45;;;15.70;99.90;;;;;;5093188;27;20042;-90
2024/04/06 07:52:09;;;;;;;7.28;2.60;;;15.80;99.90;;;;;;5110579;27;20035;-90
2024/04/06 07:54:34;;;;;;;8.70;4.10;;;15.90;99.90;;;;;;5131540;27;20126;-90
2024/04/06 07:57:02;;;;;;;9.18;3.90;;;16.00;99.90;;;;;;5112544;27;20043;-90
2024/04/06 07:59:29;;;;;;;9.20;3.45;;;16.10;99.90;;;;;;5112399;27;20054;-90
2024/04/06 08:01:54;;;;;;;12.20;3.50;;;16.20;99.90;;;;;;5095974;27;20050;-90
2024/04/06 08:04:20;;;;;;;9.55;3.97;;;16.30;99.90;;;;;;5111308;27;20490;-90
2024/04/06 08:06:46;;;;;;;7.72;2.63;;;16.30;99.90;;;;;;5126867;27;20032;-90
2024/04/06 08:09:11;;;;;;;8.52;3.72;;;16.40;99.90;;;;;;5095226;27;20405;-89
2024/04/06 08:11:37;;;;;;;8.95;3.78;;;16.50;99.90;;;;;;5094990;27;20512;-90
2024/04/06 08:14:03;;;;;;;7.72;2.80;;;16.70;99.90;;;;;;5113873;27;20591;-89
2024/04/06 08:16:28;;;;;;;9.02;3.83;;;16.80;99.90;;;;;;5130338;27;20109;-89
2024/04/06 08:18:54;;;;;;;9.63;4.32;;;16.90;99.90;;;;;;5110702;27;20686;-89
2024/04/06 08:21:20;;;;;;;8.90;3.90;;;17.00;99.90;;;;;;5111645;27;20046;-89
2024/04/06 08:23:45;;;;;;;8.90;3.60;;;17.10;99.90;;;;;;5095433;27;20031;-90
2024/04/06 08:26:11;;;;;;;7.07;2.35;;;17.30;99.90;;;;;;5113396;27;20102;-89
2024/04/06 08:28:36;;;;;;;8.45;3.75;;;17.30;99.90;;;;;;5112628;27;20127;-90
2024/04/06 08:31:03;;;;;;;8.35;3.40;;;17.40;99.90;;;;;;5095469;27;20541;-90
2024/04/06 08:33:29;;;;;;;10.00;3.40;;;17.60;99.90;;;;;;5109582;27;20039;-90
2024/04/06 08:35:59;;;;;;;11.30;3.90;;;17.70;99.90;;;;;;5109296;27;20114;-91
2024/04/06 08:38:24;;;;;;;9.32;3.53;;;17.80;99.90;;;;;;5094072;27;20038;-91
2024/04/06 08:40:51;;;;;;;7.93;3.65;;;17.90;99.90;;;;;;5094582;27;20087;-89
2024/04/06 08:43:18;;;;;;;6.45;2.78;;;18.00;99.90;;;;;;5112177;27;20050;-90
2024/04/06 08:45:44;;;;;;;9.60;3.28;;;18.00;99.90;;;;;;5112490;27;20508;-90
2024/04/06 08:48:14;;;;;;;7.45;3.35;;;18.10;99.90;;;;;;5094589;27;20036;-90
2024/04/06 08:50:42;;;;;;;6.30;3.05;;;18.20;99.90;;;;;;5091031;27;20023;-90
2024/04/06 08:53:07;;;;;;;7.82;3.25;;;18.20;99.90;;;;;;5093909;27;20111;-89
2024/04/06 08:55:33;;;;;;;8.88;3.13;;;18.20;99.90;;;;;;5110447;27;20612;-90
2024/04/06 08:57:59;;;;;;;9.65;3.35;;;18.20;99.90;;;;;;5094363;27;20496;-90
2024/04/06 09:00:27;;;;;;;8.45;3.15;;;18.30;99.90;;;;;;5108517;27;20050;-90
2024/04/06 09:02:53;;;;;;;8.18;3.35;;;18.40;99.90;;;;;;5092156;27;20505;-89
2024/04/06 09:05:19;;;;;;;7.03;2.80;;;18.50;99.90;;;;;;5107097;27;20067;-90
2024/04/06 09:07:48;;;;;;;8.05;2.95;;;18.70;99.90;;;;;;5110979;27;20520;-90
2024/04/06 09:10:14;;;;;;;7.75;3.33;;;18.80;99.90;;;;;;5093694;27;20034;-90
2024/04/06 09:12:41;;;;;;;8.15;2.83;;;19.00;99.90;;;;;;5111738;27;20111;-90
2024/04/06 09:15:09;;;;;;;6.65;2.80;;;19.10;99.90;;;;;;5094599;27;20039;-89
2024/04/06 09:17:35;;;;;;;8.85;2.63;;;19.20;99.90;;;;;;5090567;27;20042;-90
2024/04/06 09:20:02;;;;;;;7.70;2.38;;;19.30;99.90;;;;;;5110008;27;20039;-90
2024/04/06 09:22:27;;;;;;;6.18;2.13;;;19.40;99.90;;;;;;5093538;27;20059;-90
2024/04/06 09:24:54;;;;;;;7.45;2.65;;;19.60;99.90;;;;;;5111522;27;20031;-91
2024/04/06 09:27:20;;;;;;;5.82;2.13;;;19.60;99.90;;;;;;5110842;27;20392;-90
2024/04/06 09:29:48;;;;;;;7.90;2.10;;;19.70;99.90;;;;;;5094348;27;20528;-90
2024/04/06 09:32:20;;;;;;;6.85;2.08;;;19.80;99.90;;;;;;5127474;27;20039;-90
2024/04/06 09:34:50;;;;;;;7.70;1.77;;;19.90;99.90;;;;;;5108483;27;20035;-90
2024/04/06 09:37:33;;;;;;;7.35;2.30;;;20.10;99.90;;;;;;5111197;27;20110;-90
2024/04/06 09:39:59;;;;;;;6.88;2.20;;;20.20;99.90;;;;;;5091730;27;20075;-90
2024/04/06 09:42:25;;;;;;;6.07;1.88;;;20.30;99.90;;;;;;5109543;27;20031;-90
2024/04/06 09:44:53;;;;;;;8.23;2.50;;;20.40;99.90;;;;;;5108103;27;20678;-90
2024/04/06 09:47:23;;;;;;;7.20;1.90;;;20.50;99.90;;;;;;5088697;27;20039;-89
2024/04/06 09:49:50;;;;;;;6.00;1.92;;;20.60;99.90;;;;;;5109091;27;20502;-90
2024/04/06 09:52:17;;;;;;;6.80;2.00;;;20.70;99.90;;;;;;5124127;27;20035;-90
2024/04/06 09:54:43;;;;;;;7.32;1.88;;;20.60;99.90;;;;;;5126701;27;20035;-90
2024/04/06 09:57:11;;;;;;;6.57;2.10;;;20.70;99.90;;;;;;5091609;27;20049;-90
2024/04/06 09:59:37;;;;;;;6.45;1.92;;;20.80;99.90;;;;;;5088753;27;20032;-90
2024/04/06 10:02:03;;;;;;;6.88;2.00;;;20.90;99.90;;;;;;5126229;27;20513;-90
2024/04/06 10:04:34;;;;;;;5.70;1.80;;;21.00;99.90;;;;;;5108664;27;20037;-90
2024/04/06 10:07:06;;;;;;;6.50;2.27;;;21.20;99.90;;;;;;5109892;27;20831;-90
2024/04/06 10:09:35;;;;;;;9.95;6.05;;;21.30;99.90;;;;;;5110015;27;20030;-90
2024/04/06 10:12:09;;;;;;;11.48;4.53;;;21.40;99.90;;;;;;5110323;27;20034;-90
2024/04/06 10:14:44;;;;;;;6.68;2.03;;;21.50;99.90;;;;;;5128639;27;20160;-90
2024/04/06 10:17:16;;;;;;;7.95;3.42;;;21.60;99.90;;;;;;5124428;27;20035;-90
2024/04/06 10:19:43;;;;;;;6.28;1.95;;;21.80;99.90;;;;;;5089943;27;20558;-90
2024/04/06 10:22:10;;;;;;;5.20;2.00;;;21.90;99.90;;;;;;5092574;27;20039;-90
2024/04/06 10:24:37;;;;;;;6.93;2.03;;;22.10;99.90;;;;;;5092987;27;20035;-90
2024/04/06 10:27:03;;;;;;;7.85;2.10;;;22.20;99.90;;;;;;5110345;27;20058;-90
2024/04/06 10:29:30;;;;;;;7.63;1.80;;;22.30;99.90;;;;;;5107360;27;20564;-90
2024/04/06 10:31:56;;;;;;;6.35;1.95;;;22.50;99.90;;;;;;5109279;27;20114;-91
2024/04/06 10:34:21;;;;;;;6.32;1.80;;;22.60;99.90;;;;;;5109489;27;20157;-91
2024/04/06 10:36:47;;;;;;;5.57;1.80;;;22.80;99.90;;;;;;5108239;27;20031;-90
2024/04/06 10:39:17;;;;;;;6.47;1.80;;;22.80;99.90;;;;;;5109546;27;20039;-90
2024/04/06 10:41:43;;;;;;;7.15;1.95;;;23.00;99.90;;;;;;5092964;27;20039;-90
2024/04/06 10:44:12;;;;;;;6.90;1.83;;;23.10;99.90;;;;;;5126602;27;20055;-91
2024/04/06 10:46:39;;;;;;;5.57;1.50;;;23.10;99.90;;;;;;5106491;27;20054;-90
2024/04/06 10:49:11;;;;;;;6.18;1.90;;;23.20;99.90;;;;;;5128190;27;20053;-90
2024/04/06 10:51:37;;;;;;;4.63;1.70;;;23.30;99.90;;;;;;5109193;27;20500;-90
2024/04/06 10:54:04;;;;;;;8.30;2.00;;;23.40;99.90;;;;;;5129187;27;20035;-90
2024/04/06 10:56:30;;;;;;;7.53;2.17;;;23.50;99.90;;;;;;5108269;27;20537;-90
2024/04/06 10:58:55;;;;;;;7.10;2.03;;;23.50;99.90;;;;;;5125376;27;20042;-90
2024/04/06 11:01:24;;;;;;;5.00;1.63;;;23.60;99.90;;;;;;5088623;27;20031;-90
2024/04/06 11:03:50;;;;;;;8.43;2.25;;;23.70;99.90;;;;;;5127160;27;20508;-90
2024/04/06 11:06:16;;;;;;;6.10;1.70;;;23.80;99.90;;;;;;5109501;27;20481;-90
2024/04/06 11:08:42;;;;;;;6.65;1.83;;;23.80;98.70;;;;;;5126669;27;20019;-90
2024/04/06 11:11:08;;;;;;;6.90;1.98;;;23.80;99.80;;;;;;5109374;27;20035;-90
2024/04/06 11:13:41;;;;;;;8.07;1.80;;;23.90;99.90;;;;;;5106194;28;20650;-90
2024/04/06 11:16:09;;;;;;;6.22;1.88;;;23.90;99.90;;;;;;5110287;28;20614;-90
2024/04/06 11:18:46;;;;;;;7.57;2.20;;;24.00;99.90;;;;;;5107112;28;21526;-90
2024/04/06 11:21:13;;;;;;;7.82;1.88;;;24.10;99.90;;;;;;5091595;28;20027;-90
2024/04/06 11:23:40;;;;;;;7.30;2.15;;;24.20;99.90;;;;;;5108539;28;20067;-90
2024/04/06 11:26:06;;;;;;;7.68;2.25;;;24.20;99.00;;;;;;5090396;28;20080;-89
2024/04/06 11:28:33;;;;;;;6.80;1.98;;;24.30;99.60;;;;;;5106187;28;20088;-90
2024/04/06 11:31:00;;;;;;;4.78;1.67;;;24.30;96.70;;;;;;5089332;28;20035;-90
2024/04/06 11:33:26;;;;;;;7.00;2.20;;;24.40;99.70;;;;;;5091589;28;20049;-90
2024/04/06 11:35:52;;;;;;;7.10;2.10;;;24.40;99.90;;;;;;5110057;28;20031;-89
2024/04/06 11:38:18;;;;;;;7.85;1.80;;;24.50;99.90;;;;;;5109445;28;20073;-90
2024/04/06 11:40:47;;;;;;;8.85;2.10;;;24.60;99.90;;;;;;5090198;28;20070;-90
2024/04/06 11:43:15;;;;;;;6.70;2.00;;;24.70;99.20;;;;;;5106414;28;20039;-90
2024/04/06 11:45:41;;;;;;;6.43;1.90;;;24.70;98.90;;;;;;5107757;28;20641;-90
2024/04/06 11:48:07;;;;;;;6.70;2.10;;;24.70;98.30;;;;;;5108021;28;20028;-90
2024/04/06 11:50:33;;;;;;;7.55;1.77;;;24.60;95.70;;;;;;5091675;28;20035;-89
2024/04/06 11:52:58;;;;;;;7.35;2.10;;;24.70;94.60;;;;;;5109439;28;20046;-90
2024/04/06 11:55:24;;;;;;;7.53;2.20;;;24.60;93.10;;;;;;5107359;28;20469;-90
2024/04/06 11:57:50;;;;;;;7.90;2.10;;;24.60;93.80;;;;;;5106221;28;20062;-90
2024/04/06 12:00:16;;;;;;;8.60;2.03;;;24.70;93.50;;;;;;5106191;28;20031;-89
2024/04/06 12:02:41;;;;;;;6.07;1.75;;;24.70;94.80;;;;;;5126143;27;20028;-89
2024/04/06 12:05:07;;;;;;;7.70;1.88;;;24.80;93.10;;;;;;5109487;28;20150;-89
2024/04/06 12:07:34;;;;;;;6.57;1.90;;;24.80;95.80;;;;;;5126762;28;20042;-90
2024/04/06 12:10:00;;;;;;;7.90;1.88;;;25.00;94.30;;;;;;5108273;28;20043;-90
2024/04/06 12:12:26;;;;;;;4.68;1.80;;;25.00;93.90;;;;;;5105226;28;20039;-90
2024/04/06 12:14:51;;;;;;;6.90;2.13;;;25.00;92.10;;;;;;5079883;28;20031;-90
2024/04/06 12:17:27;;;;;;;7.22;2.00;;;25.10;93.00;;;;;;5084686;28;20346;-90
2024/04/06 12:19:55;;;;;;;6.15;1.92;;;25.10;92.40;;;;;;5084795;28;20110;-90
2024/04/06 12:22:21;;;;;;;5.25;1.63;;;25.20;93.70;;;;;;5108476;28;20501;-89
2024/04/06 12:24:48;;;;;;;7.07;1.92;;;25.30;90.50;;;;;;5124139;28;20798;-90
2024/04/06 12:27:17;;;;;;;7.18;1.75;;;25.50;91.60;;;;;;5105743;28;20057;-90
2024/04/06 12:29:45;;;;;;;9.52;1.90;;;25.40;89.30;;;;;;5124839;28;20070;-90
2024/04/06 12:32:11;;;;;;;6.85;1.67;;;25.50;91.10;;;;;;5108837;28;20039;-90
2024/04/06 12:34:39;;;;;;;5.10;1.63;;;25.60;90.00;;;;;;5110264;27;20122;-90
2024/04/06 12:37:09;;;;;;;6.65;1.95;;;25.70;85.00;;;;;;5130925;27;20114;-90
2024/04/06 12:39:36;;;;;;;7.78;1.95;;;25.70;84.30;;;;;;5109047;27;20035;-90